createdAt,value
2019-03-06T00:01:26.565Z,1.00
2019-03-06T00:03:55.997Z,1.00
2019-03-06T00:06:25.499Z,1.00
2019-03-06T00:08:54.935Z,0.90
2019-03-06T00:11:24.497Z,0.90
2019-03-06T00:13:53.904Z,0.80
2019-03-06T00:16:23.718Z,0.80
2019-03-06T00:18:53.145Z,0.80
2019-03-06T00:21:22.561Z,0.80
2019-03-06T00:23:52.035Z,0.80
2019-03-06T00:26:21.848Z,0.80
2019-03-06T00:28:51.262Z,0.80
2019-03-06T00:31:20.687Z,0.80
2019-03-06T00:33:50.310Z,0.80
2019-03-06T00:36:22.070Z,0.80
2019-03-06T00:38:51.873Z,0.80
2019-03-06T00:41:33.864Z,0.80
2019-03-06T00:44:03.302Z,0.80
2019-03-06T00:46:33.407Z,0.80
2019-03-06T00:49:02.873Z,0.90
2019-03-06T00:51:32.271Z,0.90
2019-03-06T00:54:01.692Z,0.90
2019-03-06T00:56:31.121Z,0.80
2019-03-06T00:59:00.831Z,0.90
2019-03-06T01:01:30.263Z,0.90
2019-03-06T01:03:59.679Z,0.80
2019-03-06T01:06:29.130Z,0.80
2019-03-06T01:08:58.944Z,0.80
2019-03-06T01:11:28.459Z,0.80
2019-03-06T01:13:57.883Z,0.80
2019-03-06T01:16:27.313Z,0.80
2019-03-06T01:18:56.977Z,0.80
2019-03-06T01:21:26.401Z,0.80
2019-03-06T01:23:56.246Z,0.90
2019-03-06T01:26:25.713Z,0.80
2019-03-06T01:28:55.177Z,0.80
2019-03-06T01:31:24.689Z,0.80
2019-03-06T01:34:22.234Z,0.90
2019-03-06T01:37:06.751Z,0.90
2019-03-06T01:39:54.211Z,0.90
2019-03-06T01:42:35.266Z,0.90
2019-03-06T01:45:07.787Z,0.80
2019-03-06T01:47:37.214Z,0.80
2019-03-06T01:50:09.473Z,0.70
2019-03-06T01:52:38.919Z,0.70
2019-03-06T01:55:09.871Z,0.60
2019-03-06T01:57:39.310Z,0.70
2019-03-06T02:00:10.936Z,0.60
2019-03-06T02:02:40.698Z,0.50
2019-03-06T02:05:10.877Z,0.60
2019-03-06T02:07:40.526Z,0.50
2019-03-06T02:10:11.147Z,0.40
2019-03-06T02:12:40.583Z,0.40
2019-03-06T02:15:11.674Z,0.40
2019-03-06T02:17:41.091Z,0.30
2019-03-06T02:20:12.435Z,0.30
2019-03-06T02:22:41.913Z,0.20
2019-03-06T02:25:11.373Z,0.20
2019-03-06T02:27:40.848Z,0.10
2019-03-06T02:30:13.461Z,0.10
2019-03-06T02:32:42.916Z,0.10
2019-03-06T02:35:12.334Z,0.10
2019-03-06T02:37:41.822Z,0.00
2019-03-06T02:40:11.476Z,0.00
2019-03-06T02:42:40.914Z,0.00
2019-03-06T02:45:11.697Z,0.10
2019-03-06T02:47:41.167Z,0.00
2019-03-06T02:50:11.977Z,0.00
2019-03-06T02:52:41.597Z,0.00
2019-03-06T02:55:11.234Z,0.10
2019-03-06T02:57:44.810Z,0.10
2019-03-06T03:00:43.697Z,0.20
2019-03-06T03:03:35.101Z,0.20
2019-03-06T03:06:08.536Z,0.20
2019-03-06T03:08:38.311Z,0.20
2019-03-06T03:11:07.749Z,0.30
2019-03-06T03:13:37.229Z,0.30
2019-03-06T03:16:06.660Z,0.20
2019-03-06T03:18:36.078Z,0.30
2019-03-06T03:21:05.547Z,0.30
2019-03-06T03:23:35.029Z,0.30
2019-03-06T03:26:04.566Z,0.40
2019-03-06T03:28:33.992Z,0.40
2019-03-06T03:31:03.436Z,0.40
2019-03-06T03:33:33.197Z,0.40
2019-03-06T03:36:02.653Z,0.40
2019-03-06T03:38:32.083Z,0.40
2019-03-06T03:41:01.554Z,0.40
2019-03-06T03:43:30.968Z,0.40
2019-03-06T03:46:00.446Z,0.40
2019-03-06T03:48:29.859Z,0.30
2019-03-06T03:50:59.339Z,0.40
2019-03-06T03:53:28.755Z,0.40
2019-03-06T03:55:58.192Z,0.50
2019-03-06T03:58:27.821Z,0.40
2019-03-06T04:00:57.259Z,0.50
2019-03-06T04:03:27.002Z,0.50
2019-03-06T04:05:56.410Z,0.50
2019-03-06T04:08:25.863Z,0.60
2019-03-06T04:10:55.278Z,0.50
2019-03-06T04:13:24.714Z,0.50
2019-03-06T04:15:54.131Z,0.50
2019-03-06T04:18:23.574Z,0.50
2019-03-06T04:20:53.013Z,0.50
2019-03-06T04:23:22.755Z,0.50
2019-03-06T04:25:52.226Z,0.40
2019-03-06T04:28:21.763Z,0.40
2019-03-06T04:30:53.479Z,0.30
2019-03-06T04:33:22.926Z,0.30
2019-03-06T04:35:52.345Z,0.20
2019-03-06T04:38:21.803Z,0.20
2019-03-06T04:40:51.228Z,0.10
2019-03-06T04:43:20.667Z,0.10
2019-03-06T04:45:50.095Z,0.10
2019-03-06T04:48:19.653Z,0.10
2019-03-06T04:50:49.086Z,0.10
2019-03-06T04:53:18.511Z,0.10
2019-03-06T04:55:47.937Z,0.20
2019-03-06T04:58:17.366Z,0.20
2019-03-06T05:00:46.787Z,0.20
2019-03-06T05:03:16.660Z,0.20
2019-03-06T05:05:46.106Z,0.20
2019-03-06T05:08:15.517Z,0.20
2019-03-06T05:10:44.965Z,0.20
2019-03-06T05:13:14.414Z,0.30
2019-03-06T05:15:43.848Z,0.40
2019-03-06T05:18:38.010Z,0.30
2019-03-06T05:21:07.481Z,0.30
2019-03-06T05:23:36.920Z,0.30
2019-03-06T05:26:06.368Z,0.30
2019-03-06T05:28:36.181Z,0.30
2019-03-06T05:31:05.639Z,0.40
2019-03-06T05:33:35.063Z,0.40
2019-03-06T05:36:29.214Z,0.40
2019-03-06T05:39:09.805Z,0.50
2019-03-06T05:41:39.537Z,0.50
2019-03-06T05:44:08.974Z,0.50
2019-03-06T05:46:38.428Z,0.60
2019-03-06T05:49:07.852Z,0.60
2019-03-06T05:51:37.326Z,0.50
2019-03-06T05:54:06.783Z,0.60
2019-03-06T05:56:36.247Z,0.60
2019-03-06T05:59:05.681Z,0.50
2019-03-06T06:01:35.699Z,0.60
2019-03-06T06:04:05.128Z,0.60
2019-03-06T06:06:34.726Z,0.60
2019-03-06T06:09:04.991Z,0.60
2019-03-06T06:11:34.415Z,0.60
2019-03-06T06:14:03.857Z,0.60
2019-03-06T06:16:33.411Z,0.60
2019-03-06T06:19:02.911Z,0.60
2019-03-06T06:21:50.079Z,0.60
2019-03-06T06:24:24.859Z,0.60
2019-03-06T06:26:54.283Z,0.70
2019-03-06T06:29:23.745Z,0.70
2019-03-06T06:31:53.177Z,0.80
2019-03-06T06:34:23.013Z,0.80
2019-03-06T06:36:52.464Z,0.80
2019-03-06T06:39:21.877Z,0.80
2019-03-06T06:41:51.308Z,0.80
2019-03-06T06:44:20.773Z,0.90
2019-03-06T06:46:50.236Z,1.00
2019-03-06T06:49:20.108Z,1.00
2019-03-06T06:52:12.519Z,1.10
2019-03-06T06:54:51.082Z,1.20
2019-03-06T06:57:52.211Z,1.30
2019-03-06T07:01:08.932Z,1.40
2019-03-06T07:04:27.731Z,1.50
2019-03-06T07:07:31.725Z,1.70
2019-03-06T07:10:18.787Z,1.80
2019-03-06T07:13:01.435Z,2.00
2019-03-06T07:15:49.384Z,2.10
2019-03-06T07:18:33.530Z,2.20
2019-03-06T07:21:11.210Z,2.40
2019-03-06T07:23:59.589Z,2.80
2019-03-06T07:26:51.204Z,3.10
2019-03-06T07:29:32.342Z,3.30
2019-03-06T07:32:23.695Z,3.70
2019-03-06T07:35:46.023Z,4.00
2019-03-06T07:38:15.508Z,4.30
2019-03-06T07:41:08.405Z,4.50
2019-03-06T07:43:55.972Z,4.60
2019-03-06T07:46:53.603Z,4.70
2019-03-06T07:49:33.137Z,4.80
2019-03-06T07:52:21.635Z,5.00
2019-03-06T07:55:06.527Z,4.90
2019-03-06T07:57:56.552Z,4.60
2019-03-06T08:00:25.994Z,4.50
2019-03-06T08:03:21.714Z,4.50
2019-03-06T08:05:51.130Z,4.40
2019-03-06T08:08:20.589Z,4.40
2019-03-06T08:10:51.635Z,4.40
2019-03-06T08:13:41.482Z,4.40
2019-03-06T08:16:28.625Z,4.50
2019-03-06T08:19:15.547Z,4.50
2019-03-06T08:21:53.352Z,4.50
2019-03-06T08:24:39.756Z,4.40
2019-03-06T08:27:28.522Z,4.30
2019-03-06T08:30:02.037Z,4.30
2019-03-06T08:32:34.313Z,4.40
2019-03-06T08:35:03.753Z,4.50
2019-03-06T08:37:33.207Z,4.60
2019-03-06T08:40:03.058Z,4.80
2019-03-06T08:42:32.685Z,4.70
2019-03-06T08:45:02.182Z,4.80
2019-03-06T08:47:51.538Z,4.70
2019-03-06T08:50:30.083Z,4.70
2019-03-06T08:53:31.030Z,4.60
2019-03-06T08:56:08.029Z,4.70
2019-03-06T08:59:05.721Z,4.80
2019-03-06T09:02:15.106Z,4.90
2019-03-06T09:05:02.054Z,4.80
2019-03-06T09:07:49.362Z,5.00
2019-03-06T09:10:48.037Z,4.80
2019-03-06T09:13:44.275Z,4.60
2019-03-06T09:16:32.892Z,4.60
2019-03-06T09:19:21.685Z,4.60
2019-03-06T09:21:56.555Z,4.70
2019-03-06T09:24:43.349Z,5.00
2019-03-06T09:27:34.487Z,5.10
2019-03-06T09:30:16.254Z,5.20
2019-03-06T09:33:02.977Z,5.20
2019-03-06T09:35:43.975Z,5.40
2019-03-06T09:38:31.462Z,5.50
2019-03-06T09:41:26.040Z,5.60
2019-03-06T09:44:19.202Z,5.50
2019-03-06T09:47:06.992Z,5.50
2019-03-06T09:50:04.400Z,5.70
2019-03-06T09:52:55.921Z,5.90
2019-03-06T09:55:42.610Z,6.20
2019-03-06T09:58:40.562Z,6.30
2019-03-06T10:01:41.247Z,6.20
2019-03-06T10:04:26.836Z,6.20
2019-03-06T10:07:14.536Z,6.50
2019-03-06T10:10:05.759Z,6.50
2019-03-06T10:12:57.399Z,6.40
2019-03-06T10:15:36.751Z,6.30
2019-03-06T10:18:10.126Z,6.30
2019-03-06T10:20:39.657Z,6.40
2019-03-06T10:23:09.097Z,6.50
2019-03-06T10:25:38.517Z,6.60
2019-03-06T10:28:08.050Z,6.60
2019-03-06T10:30:37.641Z,6.50
2019-03-06T10:33:07.142Z,6.30
2019-03-06T10:35:36.683Z,6.40
2019-03-06T10:38:06.204Z,6.70
2019-03-06T10:40:35.667Z,6.80
2019-03-06T10:43:05.119Z,6.60
2019-03-06T10:45:41.329Z,6.30
2019-03-06T10:48:06.133Z,6.30
2019-03-06T10:50:35.924Z,6.20
2019-03-06T10:53:05.585Z,6.20
2019-03-06T10:55:34.985Z,6.10
2019-03-06T10:58:05.192Z,6.10
2019-03-06T11:00:37.852Z,6.30
2019-03-06T11:03:08.059Z,6.60
2019-03-06T11:05:37.814Z,6.60
2019-03-06T11:08:07.504Z,6.60
2019-03-06T11:10:36.979Z,6.60
2019-03-06T11:13:10.409Z,6.60
2019-03-06T11:15:40.912Z,6.50
2019-03-06T11:18:11.163Z,6.50
2019-03-06T11:20:41.541Z,6.50
2019-03-06T11:23:11.293Z,6.50
2019-03-06T11:25:41.041Z,6.60
2019-03-06T11:28:11.513Z,6.60
2019-03-06T11:30:48.341Z,6.70
2019-03-06T11:33:18.898Z,6.70
2019-03-06T11:35:49.426Z,6.80
2019-03-06T11:38:20.009Z,6.80
2019-03-06T11:40:49.445Z,6.80
2019-03-06T11:43:19.008Z,6.80
2019-03-06T11:45:48.823Z,6.80
2019-03-06T11:48:18.814Z,7.00
2019-03-06T11:50:48.608Z,7.10
2019-03-06T11:53:18.161Z,7.10
2019-03-06T11:55:48.134Z,7.10
2019-03-06T11:58:19.426Z,7.30
2019-03-06T12:00:50.166Z,7.50
2019-03-06T12:03:21.904Z,7.70
2019-03-06T12:05:51.676Z,7.70
2019-03-06T12:08:21.207Z,7.70
2019-03-06T12:10:51.923Z,7.70
2019-03-06T12:13:21.600Z,7.80
2019-03-06T12:15:51.819Z,7.90
2019-03-06T12:18:22.967Z,7.80
2019-03-06T12:20:53.269Z,7.90
2019-03-06T12:23:22.791Z,8.00
2019-03-06T12:25:52.236Z,8.10
2019-03-06T12:31:01.339Z,8.20
2019-03-06T12:33:30.913Z,8.20
2019-03-06T12:36:00.537Z,8.30
2019-03-06T12:38:30.747Z,8.40
2019-03-06T12:41:00.341Z,8.30
2019-03-06T12:43:31.964Z,8.30
2019-03-06T12:46:23.839Z,8.50
2019-03-06T12:49:16.411Z,8.60
2019-03-06T12:51:54.004Z,8.80
2019-03-06T12:54:17.622Z,8.90
2019-03-06T12:56:47.169Z,8.70
2019-03-06T12:59:17.406Z,8.70
2019-03-06T13:01:47.652Z,8.80
2019-03-06T13:04:17.234Z,9.00
2019-03-06T13:06:46.711Z,8.90
2019-03-06T13:09:18.618Z,8.80
2019-03-06T13:11:48.892Z,8.80
2019-03-06T13:14:18.574Z,8.80
2019-03-06T13:16:48.845Z,8.80
2019-03-06T13:19:18.516Z,8.80
2019-03-06T13:21:48.946Z,8.70
2019-03-06T13:24:19.096Z,8.70
2019-03-06T13:26:48.778Z,8.80
2019-03-06T13:29:18.659Z,8.80
2019-03-06T13:31:48.194Z,9.00
2019-03-06T13:34:25.485Z,9.20
2019-03-06T13:36:55.460Z,9.10
2019-03-06T13:39:26.202Z,9.10
2019-03-06T13:41:56.774Z,9.10
2019-03-06T13:44:26.369Z,9.00
2019-03-06T13:46:57.474Z,9.00
2019-03-06T13:49:27.693Z,9.00
2019-03-06T13:51:57.519Z,8.80
2019-03-06T13:54:27.304Z,8.60
2019-03-06T13:56:57.014Z,8.50
2019-03-06T13:59:26.847Z,8.50
2019-03-06T14:01:56.550Z,8.70
2019-03-06T14:04:26.623Z,8.80
2019-03-06T14:06:56.403Z,8.90
2019-03-06T14:09:26.077Z,8.80
2019-03-06T14:11:55.560Z,8.80
2019-03-06T14:14:25.571Z,8.80
2019-03-06T14:16:56.231Z,8.70
2019-03-06T14:19:27.470Z,8.70
2019-03-06T14:21:56.839Z,8.60
2019-03-06T14:24:26.387Z,8.70
2019-03-06T14:26:56.688Z,8.70
2019-03-06T14:29:26.395Z,8.50
2019-03-06T14:31:56.106Z,8.50
2019-03-06T14:34:25.959Z,8.60
2019-03-06T14:36:57.926Z,8.60
2019-03-06T14:39:29.650Z,8.70
2019-03-06T14:42:01.064Z,8.80
2019-03-06T14:44:30.649Z,8.80
2019-03-06T14:47:00.432Z,8.80
2019-03-06T14:49:30.511Z,8.80
2019-03-06T14:52:06.845Z,8.90
2019-03-06T14:54:31.735Z,8.80
2019-03-06T14:57:02.132Z,8.90
2019-03-06T14:59:31.600Z,8.90
2019-03-06T15:02:01.397Z,8.90
2019-03-06T15:04:31.697Z,8.90
2019-03-06T15:07:01.287Z,8.90
2019-03-06T15:09:31.555Z,8.90
2019-03-06T15:12:01.332Z,8.90
2019-03-06T15:14:36.233Z,8.90
2019-03-06T15:17:01.916Z,8.80
2019-03-06T15:19:32.035Z,8.80
2019-03-06T15:22:02.285Z,8.80
2019-03-06T15:24:40.683Z,8.90
2019-03-06T15:27:03.016Z,8.80
2019-03-06T15:29:32.464Z,8.80
2019-03-06T15:32:01.939Z,8.80
2019-03-06T15:34:31.587Z,8.80
2019-03-06T15:37:01.044Z,8.80
2019-03-06T15:39:42.180Z,8.70
2019-03-06T15:42:12.643Z,8.80
2019-03-06T15:44:42.091Z,8.80
2019-03-06T15:47:11.634Z,8.80
2019-03-06T15:49:41.138Z,8.80
2019-03-06T15:52:11.432Z,8.70
2019-03-06T15:54:41.345Z,8.70
2019-03-06T15:57:10.926Z,8.70
2019-03-06T15:59:41.265Z,8.60
2019-03-06T16:02:14.673Z,8.60
2019-03-06T16:04:44.977Z,8.60
2019-03-06T16:07:17.422Z,8.50
2019-03-06T16:09:46.645Z,8.60
2019-03-06T16:12:18.979Z,8.60
2019-03-06T16:14:50.840Z,8.50
2019-03-06T16:17:21.362Z,8.50
2019-03-06T16:19:51.282Z,8.50
2019-03-06T16:22:20.752Z,8.50
2019-03-06T16:24:50.247Z,8.40
2019-03-06T16:27:19.668Z,8.50
2019-03-06T16:29:49.125Z,8.50
2019-03-06T16:32:18.568Z,8.40
2019-03-06T16:34:48.415Z,8.30
2019-03-06T16:37:17.862Z,8.30
2019-03-06T16:39:47.444Z,8.20
2019-03-06T16:42:17.643Z,8.20
2019-03-06T16:44:48.873Z,8.10
2019-03-06T16:47:18.415Z,8.00
2019-03-06T16:49:47.921Z,8.10
2019-03-06T16:52:17.390Z,8.00
2019-03-06T16:54:47.021Z,8.00
2019-03-06T16:57:17.991Z,8.00
2019-03-06T16:59:47.441Z,7.90
2019-03-06T17:02:19.138Z,8.00
2019-03-06T17:04:48.920Z,8.00
2019-03-06T17:07:18.983Z,8.00
2019-03-06T17:09:48.523Z,8.00
2019-03-06T17:12:18.691Z,8.00
2019-03-06T17:14:48.517Z,8.00
2019-03-06T17:17:18.086Z,7.90
2019-03-06T17:19:48.091Z,8.00
2019-03-06T17:22:17.734Z,8.00
2019-03-06T17:24:47.165Z,8.00
2019-03-06T17:27:16.735Z,8.00
2019-03-06T17:29:46.579Z,8.00
2019-03-06T17:32:16.462Z,8.00
2019-03-06T17:34:45.958Z,8.10
2019-03-06T17:37:15.549Z,8.20
2019-03-06T17:39:45.419Z,8.20
2019-03-06T17:42:18.622Z,8.20
2019-03-06T17:44:48.203Z,8.10
2019-03-06T17:47:17.688Z,8.10
2019-03-06T17:49:47.279Z,8.10
2019-03-06T17:52:17.003Z,8.00
2019-03-06T17:54:46.779Z,8.10
2019-03-06T17:57:16.253Z,8.10
2019-03-06T17:59:46.115Z,8.10
2019-03-06T18:02:15.978Z,8.10
2019-03-06T18:04:45.748Z,8.10
2019-03-06T18:07:16.035Z,8.10
2019-03-06T18:09:46.136Z,8.10
2019-03-06T18:12:16.239Z,8.10
2019-03-06T18:14:47.829Z,8.10
2019-03-06T18:17:17.769Z,8.10
2019-03-06T18:19:49.121Z,8.10
2019-03-06T18:22:18.921Z,8.10
2019-03-06T18:24:49.307Z,8.10
2019-03-06T18:27:26.137Z,8.00
2019-03-06T18:29:51.076Z,8.00
2019-03-06T18:32:21.017Z,8.00
2019-03-06T18:34:52.650Z,8.00
2019-03-06T18:37:22.683Z,8.00
2019-03-06T18:39:52.309Z,8.00
2019-03-06T18:42:22.270Z,8.00
2019-03-06T18:44:52.691Z,8.00
2019-03-06T18:47:22.714Z,8.00
2019-03-06T18:49:54.408Z,8.00
2019-03-06T18:52:24.488Z,8.00
2019-03-06T18:54:55.233Z,8.00
2019-03-06T18:57:24.825Z,8.10
2019-03-06T18:59:54.234Z,8.10
2019-03-06T19:02:26.397Z,8.00
2019-03-06T19:04:56.332Z,8.00
2019-03-06T19:07:26.848Z,8.00
2019-03-06T19:09:56.658Z,8.00
2019-03-06T19:12:28.787Z,8.00
2019-03-06T19:15:00.645Z,8.00
2019-03-06T19:17:30.929Z,7.90
2019-03-06T19:20:01.107Z,7.90
2019-03-06T19:22:31.603Z,7.90
2019-03-06T19:25:01.194Z,7.90
2019-03-06T19:27:30.780Z,7.90
2019-03-06T19:30:00.648Z,7.90
2019-03-06T19:32:30.650Z,7.90
2019-03-06T19:35:01.802Z,7.90
2019-03-06T19:37:31.317Z,7.90
2019-03-06T19:40:01.838Z,7.90
2019-03-06T19:42:33.165Z,7.90
2019-03-06T19:45:05.963Z,7.90
2019-03-06T19:47:36.229Z,8.00
2019-03-06T19:50:08.319Z,8.00
2019-03-06T19:52:38.198Z,8.00
2019-03-06T19:55:07.756Z,7.90
2019-03-06T19:57:53.042Z,7.90
2019-03-06T20:00:24.374Z,7.90
2019-03-06T20:02:55.088Z,7.90
2019-03-06T20:05:31.929Z,7.90
2019-03-06T20:08:03.343Z,7.80
2019-03-06T20:10:33.524Z,7.80
2019-03-06T20:13:05.892Z,7.80
2019-03-06T20:15:36.307Z,7.80
2019-03-06T20:18:06.497Z,7.80
2019-03-06T20:20:36.474Z,7.80
2019-03-06T20:23:07.566Z,7.80
2019-03-06T20:25:37.364Z,7.70
2019-03-06T20:28:07.123Z,7.80
2019-03-06T20:30:36.707Z,7.70
2019-03-06T20:33:06.735Z,7.70
2019-03-06T20:35:36.327Z,7.70
2019-03-06T20:38:06.384Z,7.70
2019-03-06T20:40:54.942Z,7.70
2019-03-06T20:43:24.398Z,7.70
2019-03-06T20:45:55.009Z,7.70
2019-03-06T20:48:24.525Z,7.70
2019-03-06T20:50:54.167Z,7.70
2019-03-06T20:53:23.682Z,7.70
2019-03-06T20:55:53.195Z,7.70
2019-03-06T20:58:22.692Z,7.70
2019-03-06T21:00:52.506Z,7.70
2019-03-06T21:03:22.147Z,7.70
2019-03-06T21:05:51.904Z,7.70
2019-03-06T21:08:22.192Z,7.60
2019-03-06T21:10:51.831Z,7.60
2019-03-06T21:13:21.419Z,7.60
2019-03-06T21:15:50.830Z,7.70
2019-03-06T21:18:20.427Z,7.70
2019-03-06T21:20:50.217Z,7.70
2019-03-06T21:23:19.815Z,7.70
2019-03-06T21:25:49.230Z,7.70
2019-03-06T21:28:18.670Z,7.70
2019-03-06T21:30:48.121Z,7.70
2019-03-06T21:33:17.556Z,7.70
2019-03-06T21:35:48.307Z,7.70
2019-03-06T21:38:17.804Z,7.70
2019-03-06T21:40:47.744Z,7.70
2019-03-06T21:43:17.184Z,7.70
2019-03-06T21:45:46.633Z,7.70
2019-03-06T21:48:16.223Z,7.70
2019-03-06T21:50:46.404Z,7.70
2019-03-06T21:53:15.895Z,7.70
2019-03-06T21:55:45.335Z,7.70
2019-03-06T21:58:14.984Z,7.70
2019-03-06T22:00:44.941Z,7.70
2019-03-06T22:03:14.398Z,7.70
2019-03-06T22:05:43.846Z,7.70
2019-03-06T22:08:13.405Z,7.70
2019-03-06T22:10:42.933Z,7.70
2019-03-06T22:13:12.485Z,7.70
2019-03-06T22:15:42.282Z,7.70
2019-03-06T22:18:11.757Z,7.70
2019-03-06T22:20:42.093Z,7.70
2019-03-06T22:23:11.860Z,7.70
2019-03-06T22:25:41.378Z,7.70
2019-03-06T22:28:10.821Z,7.70
2019-03-06T22:30:40.777Z,7.70
2019-03-06T22:33:10.250Z,7.70
2019-03-06T22:35:40.407Z,7.70
2019-03-06T22:38:09.839Z,7.70
2019-03-06T22:40:39.286Z,7.70
2019-03-06T22:43:08.759Z,7.70
2019-03-06T22:45:38.247Z,7.70
2019-03-06T22:48:07.735Z,7.70
2019-03-06T22:50:37.320Z,7.70
2019-03-06T22:53:06.754Z,7.60
2019-03-06T22:55:36.177Z,7.60
2019-03-06T22:58:09.131Z,7.60
2019-03-06T23:00:56.480Z,7.60
2019-03-06T23:03:27.528Z,7.60
2019-03-06T23:05:56.961Z,7.60
2019-03-06T23:08:26.749Z,7.60
2019-03-06T23:10:56.242Z,7.50
2019-03-06T23:13:26.049Z,7.50
2019-03-06T23:15:55.671Z,7.50
2019-03-06T23:18:25.112Z,7.50
2019-03-06T23:20:54.648Z,7.40
2019-03-06T23:23:24.087Z,7.40
2019-03-06T23:25:53.536Z,7.40
2019-03-06T23:28:22.969Z,7.40
2019-03-06T23:30:52.765Z,7.40
2019-03-06T23:33:22.243Z,7.30
2019-03-06T23:35:51.697Z,7.30
2019-03-06T23:38:21.123Z,7.30
2019-03-06T23:40:50.879Z,7.30
2019-03-06T23:43:20.305Z,7.30
2019-03-06T23:45:49.762Z,7.30
2019-03-06T23:48:19.197Z,7.30
2019-03-06T23:50:48.658Z,7.30
2019-03-06T23:53:22.288Z,7.20
2019-03-06T23:55:51.715Z,7.20
2019-03-06T23:58:21.147Z,7.20
